sensor_id;sensor_type;location;lat;lon;timestamp;P1;durP1;ratioP1;P2;durP2;ratioP2
56381;SDS011;50261;51.150;4.470;2022-08-19T00:00:04;24.58;;;21.88;;
56381;SDS011;50261;51.150;4.470;2022-08-19T00:02:30;24.25;;;20.92;;
56381;SDS011;50261;51.150;4.470;2022-08-19T00:04:56;26.83;;;22.60;;
56381;SDS011;50261;51.150;4.470;2022-08-19T00:07:21;28.58;;;23.80;;
56381;SDS011;50261;51.150;4.470;2022-08-19T00:09:47;27.63;;;23.75;;
56381;SDS011;50261;51.150;4.470;2022-08-19T00:12:12;28.23;;;23.52;;
56381;SDS011;50261;51.150;4.470;2022-08-19T00:14:38;28.98;;;24.30;;
56381;SDS011;50261;51.150;4.470;2022-08-19T00:17:05;28.55;;;23.92;;
56381;SDS011;50261;51.150;4.470;2022-08-19T00:19:31;33.05;;;25.75;;
56381;SDS011;50261;51.150;4.470;2022-08-19T00:21:57;28.63;;;24.65;;
56381;SDS011;50261;51.150;4.470;2022-08-19T00:24:22;29.83;;;25.52;;
56381;SDS011;50261;51.150;4.470;2022-08-19T00:26:48;28.42;;;25.08;;
56381;SDS011;50261;51.150;4.470;2022-08-19T00:29:15;30.77;;;25.35;;
56381;SDS011;50261;51.150;4.470;2022-08-19T00:31:40;29.35;;;26.10;;
56381;SDS011;50261;51.150;4.470;2022-08-19T00:34:07;31.15;;;26.02;;
56381;SDS011;50261;51.150;4.470;2022-08-19T00:36:33;30.52;;;26.13;;
56381;SDS011;50261;51.150;4.470;2022-08-19T00:38:59;31.15;;;26.95;;
56381;SDS011;50261;51.150;4.470;2022-08-19T00:41:25;31.77;;;26.60;;
56381;SDS011;50261;51.150;4.470;2022-08-19T00:44:07;31.60;;;27.63;;
56381;SDS011;50261;51.150;4.470;2022-08-19T00:46:34;33.92;;;26.90;;
56381;SDS011;50261;51.150;4.470;2022-08-19T00:49:02;33.17;;;27.85;;
56381;SDS011;50261;51.150;4.470;2022-08-19T00:51:31;36.67;;;26.95;;
56381;SDS011;50261;51.150;4.470;2022-08-19T00:53:57;30.95;;;26.95;;
56381;SDS011;50261;51.150;4.470;2022-08-19T00:56:24;32.72;;;26.88;;
56381;SDS011;50261;51.150;4.470;2022-08-19T00:58:52;34.78;;;28.45;;
56381;SDS011;50261;51.150;4.470;2022-08-19T01:01:19;31.75;;;26.42;;
56381;SDS011;50261;51.150;4.470;2022-08-19T01:03:44;31.58;;;26.38;;
56381;SDS011;50261;51.150;4.470;2022-08-19T01:06:10;32.83;;;27.98;;
56381;SDS011;50261;51.150;4.470;2022-08-19T01:08:35;33.20;;;27.77;;
56381;SDS011;50261;51.150;4.470;2022-08-19T01:11:01;35.70;;;28.55;;
56381;SDS011;50261;51.150;4.470;2022-08-19T01:13:27;37.17;;;27.98;;
56381;SDS011;50261;51.150;4.470;2022-08-19T01:15:57;34.67;;;27.85;;
56381;SDS011;50261;51.150;4.470;2022-08-19T01:18:24;36.78;;;28.85;;
56381;SDS011;50261;51.150;4.470;2022-08-19T01:20:50;34.47;;;29.15;;
56381;SDS011;50261;51.150;4.470;2022-08-19T01:23:16;39.72;;;30.83;;
56381;SDS011;50261;51.150;4.470;2022-08-19T01:25:44;38.72;;;30.42;;
56381;SDS011;50261;51.150;4.470;2022-08-19T01:28:23;36.70;;;29.02;;
56381;SDS011;50261;51.150;4.470;2022-08-19T01:30:51;38.20;;;30.17;;
56381;SDS011;50261;51.150;4.470;2022-08-19T01:33:16;37.30;;;29.50;;
56381;SDS011;50261;51.150;4.470;2022-08-19T01:35:42;34.35;;;27.92;;
56381;SDS011;50261;51.150;4.470;2022-08-19T01:38:09;37.47;;;29.73;;
56381;SDS011;50261;51.150;4.470;2022-08-19T01:40:43;35.22;;;28.42;;
56381;SDS011;50261;51.150;4.470;2022-08-19T01:43:09;35.45;;;29.67;;
56381;SDS011;50261;51.150;4.470;2022-08-19T01:45:35;39.00;;;29.77;;
56381;SDS011;50261;51.150;4.470;2022-08-19T01:48:01;35.65;;;29.15;;
56381;SDS011;50261;51.150;4.470;2022-08-19T01:50:26;39.92;;;30.13;;
56381;SDS011;50261;51.150;4.470;2022-08-19T01:52:52;42.08;;;31.45;;
56381;SDS011;50261;51.150;4.470;2022-08-19T01:55:19;40.15;;;31.17;;
56381;SDS011;50261;51.150;4.470;2022-08-19T01:57:46;40.53;;;32.13;;
56381;SDS011;50261;51.150;4.470;2022-08-19T02:00:14;40.03;;;32.20;;
56381;SDS011;50261;51.150;4.470;2022-08-19T02:02:41;44.63;;;32.58;;
56381;SDS011;50261;51.150;4.470;2022-08-19T02:05:07;41.78;;;32.63;;
56381;SDS011;50261;51.150;4.470;2022-08-19T02:07:33;46.70;;;34.20;;
56381;SDS011;50261;51.150;4.470;2022-08-19T02:10:01;42.63;;;33.83;;
56381;SDS011;50261;51.150;4.470;2022-08-19T02:12:28;43.70;;;32.63;;
56381;SDS011;50261;51.150;4.470;2022-08-19T02:14:54;43.50;;;33.90;;
56381;SDS011;50261;51.150;4.470;2022-08-19T02:17:19;45.08;;;33.95;;
56381;SDS011;50261;51.150;4.470;2022-08-19T02:19:45;41.65;;;33.25;;
56381;SDS011;50261;51.150;4.470;2022-08-19T02:22:11;41.35;;;33.58;;
56381;SDS011;50261;51.150;4.470;2022-08-19T02:24:37;46.90;;;34.00;;
56381;SDS011;50261;51.150;4.470;2022-08-19T02:27:04;46.08;;;34.58;;
56381;SDS011;50261;51.150;4.470;2022-08-19T02:29:30;44.17;;;34.13;;
56381;SDS011;50261;51.150;4.470;2022-08-19T02:31:55;46.83;;;35.97;;
56381;SDS011;50261;51.150;4.470;2022-08-19T02:34:21;46.90;;;35.30;;
56381;SDS011;50261;51.150;4.470;2022-08-19T02:36:47;49.47;;;36.15;;
56381;SDS011;50261;51.150;4.470;2022-08-19T02:39:12;45.53;;;35.42;;
56381;SDS011;50261;51.150;4.470;2022-08-19T02:41:38;44.53;;;35.17;;
56381;SDS011;50261;51.150;4.470;2022-08-19T02:44:04;46.55;;;36.88;;
56381;SDS011;50261;51.150;4.470;2022-08-19T02:46:31;46.05;;;34.75;;
56381;SDS011;50261;51.150;4.470;2022-08-19T02:49:02;49.72;;;36.33;;
56381;SDS011;50261;51.150;4.470;2022-08-19T02:51:29;46.25;;;35.58;;
56381;SDS011;50261;51.150;4.470;2022-08-19T02:53:55;45.55;;;34.83;;
56381;SDS011;50261;51.150;4.470;2022-08-19T02:56:22;48.50;;;35.55;;
56381;SDS011;50261;51.150;4.470;2022-08-19T02:58:49;45.15;;;34.15;;
56381;SDS011;50261;51.150;4.470;2022-08-19T03:01:23;46.67;;;34.35;;
56381;SDS011;50261;51.150;4.470;2022-08-19T03:03:49;44.88;;;34.30;;
56381;SDS011;50261;51.150;4.470;2022-08-19T03:06:16;43.83;;;35.83;;
56381;SDS011;50261;51.150;4.470;2022-08-19T03:08:42;43.97;;;34.75;;
56381;SDS011;50261;51.150;4.470;2022-08-19T03:13:40;45.75;;;34.63;;
56381;SDS011;50261;51.150;4.470;2022-08-19T03:16:08;47.10;;;35.92;;
56381;SDS011;50261;51.150;4.470;2022-08-19T03:18:34;48.35;;;34.58;;
56381;SDS011;50261;51.150;4.470;2022-08-19T03:20:59;48.17;;;34.15;;
56381;SDS011;50261;51.150;4.470;2022-08-19T03:23:25;40.75;;;30.38;;
56381;SDS011;50261;51.150;4.470;2022-08-19T03:25:52;44.67;;;30.77;;
56381;SDS011;50261;51.150;4.470;2022-08-19T03:28:19;42.00;;;31.33;;
56381;SDS011;50261;51.150;4.470;2022-08-19T03:30:55;44.00;;;32.35;;
56381;SDS011;50261;51.150;4.470;2022-08-19T03:33:22;41.88;;;30.00;;
56381;SDS011;50261;51.150;4.470;2022-08-19T03:35:58;44.20;;;30.42;;
56381;SDS011;50261;51.150;4.470;2022-08-19T03:38:24;44.85;;;29.85;;
56381;SDS011;50261;51.150;4.470;2022-08-19T03:40:50;40.00;;;29.30;;
56381;SDS011;50261;51.150;4.470;2022-08-19T03:43:16;37.33;;;28.23;;
56381;SDS011;50261;51.150;4.470;2022-08-19T03:45:43;41.83;;;29.13;;
56381;SDS011;50261;51.150;4.470;2022-08-19T03:48:08;43.22;;;30.55;;
56381;SDS011;50261;51.150;4.470;2022-08-19T03:50:38;41.83;;;28.88;;
56381;SDS011;50261;51.150;4.470;2022-08-19T03:53:04;43.35;;;28.02;;
56381;SDS011;50261;51.150;4.470;2022-08-19T03:55:30;38.53;;;26.98;;
56381;SDS011;50261;51.150;4.470;2022-08-19T03:57:55;36.33;;;27.58;;
56381;SDS011;50261;51.150;4.470;2022-08-19T04:00:21;39.95;;;29.05;;
56381;SDS011;50261;51.150;4.470;2022-08-19T04:02:47;40.13;;;27.88;;
56381;SDS011;50261;51.150;4.470;2022-08-19T04:05:13;36.10;;;27.38;;
56381;SDS011;50261;51.150;4.470;2022-08-19T04:07:39;37.67;;;25.63;;
56381;SDS011;50261;51.150;4.470;2022-08-19T04:10:05;40.13;;;27.10;;
56381;SDS011;50261;51.150;4.470;2022-08-19T04:12:31;36.10;;;26.00;;
56381;SDS011;50261;51.150;4.470;2022-08-19T04:14:56;34.95;;;24.65;;
56381;SDS011;50261;51.150;4.470;2022-08-19T04:17:22;35.17;;;24.75;;
56381;SDS011;50261;51.150;4.470;2022-08-19T04:19:48;34.60;;;25.58;;
56381;SDS011;50261;51.150;4.470;2022-08-19T04:22:13;37.70;;;25.67;;
56381;SDS011;50261;51.150;4.470;2022-08-19T04:24:39;35.17;;;24.98;;
56381;SDS011;50261;51.150;4.470;2022-08-19T04:27:05;37.00;;;24.60;;
56381;SDS011;50261;51.150;4.470;2022-08-19T04:29:31;32.85;;;22.98;;
56381;SDS011;50261;51.150;4.470;2022-08-19T04:31:57;37.17;;;24.25;;
56381;SDS011;50261;51.150;4.470;2022-08-19T04:34:24;32.35;;;25.15;;
56381;SDS011;50261;51.150;4.470;2022-08-19T04:36:51;34.55;;;24.00;;
56381;SDS011;50261;51.150;4.470;2022-08-19T04:39:18;35.20;;;24.13;;
56381;SDS011;50261;51.150;4.470;2022-08-19T04:41:45;33.83;;;23.50;;
56381;SDS011;50261;51.150;4.470;2022-08-19T04:44:33;35.47;;;22.55;;
56381;SDS011;50261;51.150;4.470;2022-08-19T04:46:59;36.83;;;24.15;;
56381;SDS011;50261;51.150;4.470;2022-08-19T04:49:25;37.35;;;23.50;;
56381;SDS011;50261;51.150;4.470;2022-08-19T04:51:51;33.22;;;22.60;;
56381;SDS011;50261;51.150;4.470;2022-08-19T04:54:19;36.38;;;22.63;;
56381;SDS011;50261;51.150;4.470;2022-08-19T04:56:53;33.90;;;22.42;;
56381;SDS011;50261;51.150;4.470;2022-08-19T04:59:19;29.92;;;21.52;;
56381;SDS011;50261;51.150;4.470;2022-08-19T05:01:45;33.70;;;22.00;;
56381;SDS011;50261;51.150;4.470;2022-08-19T05:04:14;32.88;;;22.73;;
56381;SDS011;50261;51.150;4.470;2022-08-19T05:06:40;30.23;;;20.77;;
56381;SDS011;50261;51.150;4.470;2022-08-19T05:09:06;31.50;;;22.13;;
56381;SDS011;50261;51.150;4.470;2022-08-19T05:11:33;31.13;;;22.25;;
56381;SDS011;50261;51.150;4.470;2022-08-19T05:13:59;33.55;;;21.45;;
56381;SDS011;50261;51.150;4.470;2022-08-19T05:16:26;27.10;;;20.13;;
56381;SDS011;50261;51.150;4.470;2022-08-19T05:18:51;34.40;;;21.25;;
56381;SDS011;50261;51.150;4.470;2022-08-19T05:21:35;31.52;;;21.23;;
56381;SDS011;50261;51.150;4.470;2022-08-19T05:24:21;32.53;;;20.52;;
56381;SDS011;50261;51.150;4.470;2022-08-19T05:26:47;32.40;;;21.20;;
56381;SDS011;50261;51.150;4.470;2022-08-19T05:29:14;31.08;;;19.92;;
56381;SDS011;50261;51.150;4.470;2022-08-19T05:31:40;29.40;;;18.90;;
56381;SDS011;50261;51.150;4.470;2022-08-19T05:34:06;32.30;;;19.50;;
56381;SDS011;50261;51.150;4.470;2022-08-19T05:36:39;26.80;;;18.60;;
56381;SDS011;50261;51.150;4.470;2022-08-19T05:39:06;32.45;;;19.83;;
56381;SDS011;50261;51.150;4.470;2022-08-19T05:41:32;27.23;;;18.95;;
56381;SDS011;50261;51.150;4.470;2022-08-19T05:43:57;30.60;;;18.35;;
56381;SDS011;50261;51.150;4.470;2022-08-19T05:46:23;33.63;;;18.73;;
56381;SDS011;50261;51.150;4.470;2022-08-19T05:48:49;31.50;;;17.50;;
56381;SDS011;50261;51.150;4.470;2022-08-19T05:51:15;27.23;;;16.52;;
56381;SDS011;50261;51.150;4.470;2022-08-19T05:53:41;25.90;;;16.33;;
56381;SDS011;50261;51.150;4.470;2022-08-19T05:56:07;27.88;;;16.05;;
56381;SDS011;50261;51.150;4.470;2022-08-19T05:58:34;24.92;;;16.58;;
56381;SDS011;50261;51.150;4.470;2022-08-19T06:00:59;25.10;;;17.30;;
56381;SDS011;50261;51.150;4.470;2022-08-19T06:03:32;27.13;;;17.23;;
56381;SDS011;50261;51.150;4.470;2022-08-19T06:05:58;26.75;;;16.88;;
56381;SDS011;50261;51.150;4.470;2022-08-19T06:08:28;28.10;;;15.68;;
56381;SDS011;50261;51.150;4.470;2022-08-19T06:10:53;25.27;;;16.73;;
56381;SDS011;50261;51.150;4.470;2022-08-19T06:13:19;25.77;;;16.50;;
56381;SDS011;50261;51.150;4.470;2022-08-19T06:15:45;25.40;;;16.67;;
56381;SDS011;50261;51.150;4.470;2022-08-19T06:18:12;22.13;;;15.80;;
56381;SDS011;50261;51.150;4.470;2022-08-19T06:20:38;23.58;;;15.73;;
56381;SDS011;50261;51.150;4.470;2022-08-19T06:23:03;19.83;;;14.52;;
56381;SDS011;50261;51.150;4.470;2022-08-19T06:25:29;22.33;;;14.68;;
56381;SDS011;50261;51.150;4.470;2022-08-19T06:27:55;24.17;;;14.77;;
56381;SDS011;50261;51.150;4.470;2022-08-19T06:30:20;22.40;;;15.32;;
56381;SDS011;50261;51.150;4.470;2022-08-19T06:32:46;23.75;;;14.25;;
56381;SDS011;50261;51.150;4.470;2022-08-19T06:35:11;24.63;;;14.10;;
56381;SDS011;50261;51.150;4.470;2022-08-19T06:37:40;20.90;;;14.57;;
56381;SDS011;50261;51.150;4.470;2022-08-19T06:40:06;21.05;;;14.15;;
56381;SDS011;50261;51.150;4.470;2022-08-19T06:42:33;26.27;;;13.95;;
56381;SDS011;50261;51.150;4.470;2022-08-19T06:45:01;21.90;;;13.40;;
56381;SDS011;50261;51.150;4.470;2022-08-19T06:47:30;22.85;;;14.30;;
56381;SDS011;50261;51.150;4.470;2022-08-19T06:49:58;33.83;;;14.57;;
56381;SDS011;50261;51.150;4.470;2022-08-19T06:52:30;25.85;;;14.27;;
56381;SDS011;50261;51.150;4.470;2022-08-19T06:54:57;22.05;;;12.63;;
56381;SDS011;50261;51.150;4.470;2022-08-19T06:57:24;22.65;;;13.23;;
56381;SDS011;50261;51.150;4.470;2022-08-19T06:59:49;25.67;;;14.20;;
56381;SDS011;50261;51.150;4.470;2022-08-19T07:02:15;24.00;;;13.77;;
56381;SDS011;50261;51.150;4.470;2022-08-19T07:04:40;24.88;;;15.55;;
56381;SDS011;50261;51.150;4.470;2022-08-19T07:07:10;25.35;;;15.32;;
56381;SDS011;50261;51.150;4.470;2022-08-19T07:09:38;26.33;;;14.60;;
56381;SDS011;50261;51.150;4.470;2022-08-19T07:12:05;23.48;;;15.10;;
56381;SDS011;50261;51.150;4.470;2022-08-19T07:14:31;23.80;;;14.57;;
56381;SDS011;50261;51.150;4.470;2022-08-19T07:16:57;26.08;;;15.07;;
56381;SDS011;50261;51.150;4.470;2022-08-19T07:19:23;28.20;;;14.63;;
56381;SDS011;50261;51.150;4.470;2022-08-19T07:21:51;28.20;;;15.07;;
56381;SDS011;50261;51.150;4.470;2022-08-19T07:24:19;24.25;;;15.10;;
56381;SDS011;50261;51.150;4.470;2022-08-19T07:26:46;22.60;;;13.88;;
56381;SDS011;50261;51.150;4.470;2022-08-19T07:29:11;31.27;;;14.88;;
56381;SDS011;50261;51.150;4.470;2022-08-19T07:31:37;23.33;;;14.90;;
56381;SDS011;50261;51.150;4.470;2022-08-19T07:34:03;24.08;;;14.98;;
56381;SDS011;50261;51.150;4.470;2022-08-19T07:36:33;27.63;;;14.98;;
56381;SDS011;50261;51.150;4.470;2022-08-19T07:38:59;24.25;;;14.88;;
56381;SDS011;50261;51.150;4.470;2022-08-19T07:41:26;20.20;;;13.43;;
56381;SDS011;50261;51.150;4.470;2022-08-19T07:43:53;25.50;;;13.52;;
56381;SDS011;50261;51.150;4.470;2022-08-19T07:46:19;20.35;;;12.88;;
56381;SDS011;50261;51.150;4.470;2022-08-19T07:48:45;25.17;;;14.00;;
56381;SDS011;50261;51.150;4.470;2022-08-19T07:51:12;21.48;;;13.00;;
56381;SDS011;50261;51.150;4.470;2022-08-19T07:53:37;23.35;;;13.85;;
56381;SDS011;50261;51.150;4.470;2022-08-19T07:56:03;17.98;;;13.10;;
56381;SDS011;50261;51.150;4.470;2022-08-19T07:58:30;21.73;;;13.32;;
56381;SDS011;50261;51.150;4.470;2022-08-19T08:00:56;19.33;;;13.02;;
56381;SDS011;50261;51.150;4.470;2022-08-19T08:03:22;22.70;;;14.00;;
56381;SDS011;50261;51.150;4.470;2022-08-19T08:06:12;22.73;;;14.20;;
56381;SDS011;50261;51.150;4.470;2022-08-19T08:08:56;21.25;;;13.07;;
56381;SDS011;50261;51.150;4.470;2022-08-19T08:11:37;19.98;;;13.02;;
56381;SDS011;50261;51.150;4.470;2022-08-19T08:14:03;17.85;;;12.68;;
56381;SDS011;50261;51.150;4.470;2022-08-19T08:16:30;20.17;;;12.80;;
56381;SDS011;50261;51.150;4.470;2022-08-19T08:18:56;15.40;;;11.38;;
56381;SDS011;50261;51.150;4.470;2022-08-19T08:21:22;18.25;;;11.48;;
56381;SDS011;50261;51.150;4.470;2022-08-19T08:23:47;14.90;;;10.93;;
56381;SDS011;50261;51.150;4.470;2022-08-19T08:26:12;21.67;;;12.45;;
56381;SDS011;50261;51.150;4.470;2022-08-19T08:28:39;18.77;;;11.13;;
56381;SDS011;50261;51.150;4.470;2022-08-19T08:31:05;17.50;;;10.93;;
56381;SDS011;50261;51.150;4.470;2022-08-19T08:33:30;20.05;;;10.82;;
56381;SDS011;50261;51.150;4.470;2022-08-19T08:35:56;16.77;;;10.52;;
56381;SDS011;50261;51.150;4.470;2022-08-19T08:38:21;15.70;;;10.82;;
56381;SDS011;50261;51.150;4.470;2022-08-19T08:40:48;14.75;;;11.35;;
56381;SDS011;50261;51.150;4.470;2022-08-19T08:43:22;18.10;;;10.93;;
56381;SDS011;50261;51.150;4.470;2022-08-19T08:46:12;15.98;;;10.57;;
56381;SDS011;50261;51.150;4.470;2022-08-19T08:48:39;15.57;;;10.02;;
56381;SDS011;50261;51.150;4.470;2022-08-19T08:51:07;15.48;;;10.25;;
56381;SDS011;50261;51.150;4.470;2022-08-19T08:53:34;16.40;;;10.32;;
56381;SDS011;50261;51.150;4.470;2022-08-19T08:56:01;14.25;;;10.52;;
56381;SDS011;50261;51.150;4.470;2022-08-19T08:58:40;15.20;;;9.52;;
56381;SDS011;50261;51.150;4.470;2022-08-19T09:01:09;15.45;;;9.60;;
56381;SDS011;50261;51.150;4.470;2022-08-19T09:03:36;16.27;;;9.40;;
56381;SDS011;50261;51.150;4.470;2022-08-19T09:06:24;19.35;;;10.50;;
56381;SDS011;50261;51.150;4.470;2022-08-19T09:11:25;13.43;;;9.52;;
56381;SDS011;50261;51.150;4.470;2022-08-19T09:14:08;14.10;;;8.55;;
56381;SDS011;50261;51.150;4.470;2022-08-19T09:16:36;12.95;;;8.45;;
56381;SDS011;50261;51.150;4.470;2022-08-19T09:19:06;13.35;;;9.52;;
56381;SDS011;50261;51.150;4.470;2022-08-19T09:21:33;16.45;;;9.63;;
56381;SDS011;50261;51.150;4.470;2022-08-19T09:24:07;17.40;;;9.82;;
56381;SDS011;50261;51.150;4.470;2022-08-19T09:26:33;16.15;;;9.25;;
56381;SDS011;50261;51.150;4.470;2022-08-19T09:28:59;14.73;;;9.02;;
56381;SDS011;50261;51.150;4.470;2022-08-19T09:31:27;14.13;;;9.32;;
56381;SDS011;50261;51.150;4.470;2022-08-19T09:33:52;12.52;;;8.70;;
56381;SDS011;50261;51.150;4.470;2022-08-19T09:36:26;15.50;;;9.13;;
56381;SDS011;50261;51.150;4.470;2022-08-19T09:38:54;13.88;;;9.32;;
56381;SDS011;50261;51.150;4.470;2022-08-19T09:41:21;16.13;;;9.07;;
56381;SDS011;50261;51.150;4.470;2022-08-19T09:43:48;38.83;;;12.20;;
56381;SDS011;50261;51.150;4.470;2022-08-19T09:46:17;17.10;;;9.65;;
56381;SDS011;50261;51.150;4.470;2022-08-19T09:48:43;15.65;;;10.45;;
56381;SDS011;50261;51.150;4.470;2022-08-19T09:51:13;17.70;;;9.98;;
56381;SDS011;50261;51.150;4.470;2022-08-19T09:53:41;18.95;;;9.60;;
56381;SDS011;50261;51.150;4.470;2022-08-19T09:56:09;15.63;;;11.40;;
56381;SDS011;50261;51.150;4.470;2022-08-19T09:58:37;17.08;;;11.75;;
56381;SDS011;50261;51.150;4.470;2022-08-19T10:01:03;18.13;;;11.32;;
56381;SDS011;50261;51.150;4.470;2022-08-19T10:03:30;16.30;;;11.43;;
56381;SDS011;50261;51.150;4.470;2022-08-19T10:05:56;19.70;;;11.50;;
56381;SDS011;50261;51.150;4.470;2022-08-19T10:08:24;18.33;;;11.32;;
56381;SDS011;50261;51.150;4.470;2022-08-19T10:10:50;16.25;;;9.68;;
56381;SDS011;50261;51.150;4.470;2022-08-19T10:13:17;18.63;;;10.70;;
56381;SDS011;50261;51.150;4.470;2022-08-19T10:15:53;15.75;;;10.70;;
56381;SDS011;50261;51.150;4.470;2022-08-19T10:18:22;15.18;;;10.70;;
56381;SDS011;50261;51.150;4.470;2022-08-19T10:20:49;17.05;;;9.95;;
56381;SDS011;50261;51.150;4.470;2022-08-19T10:23:15;18.17;;;10.75;;
56381;SDS011;50261;51.150;4.470;2022-08-19T10:25:41;16.23;;;10.55;;
56381;SDS011;50261;51.150;4.470;2022-08-19T10:28:07;19.52;;;12.35;;
56381;SDS011;50261;51.150;4.470;2022-08-19T10:30:33;19.65;;;12.50;;
56381;SDS011;50261;51.150;4.470;2022-08-19T10:32:58;19.35;;;12.07;;
56381;SDS011;50261;51.150;4.470;2022-08-19T10:35:24;18.20;;;11.88;;
56381;SDS011;50261;51.150;4.470;2022-08-19T10:37:54;17.48;;;10.65;;
56381;SDS011;50261;51.150;4.470;2022-08-19T10:40:26;15.93;;;10.70;;
56381;SDS011;50261;51.150;4.470;2022-08-19T10:42:52;21.65;;;11.50;;
56381;SDS011;50261;51.150;4.470;2022-08-19T10:45:20;16.35;;;10.30;;
56381;SDS011;50261;51.150;4.470;2022-08-19T10:47:48;17.98;;;10.80;;
56381;SDS011;50261;51.150;4.470;2022-08-19T10:50:14;18.73;;;10.27;;
56381;SDS011;50261;51.150;4.470;2022-08-19T10:53:02;15.57;;;10.20;;
56381;SDS011;50261;51.150;4.470;2022-08-19T10:55:28;16.42;;;9.82;;
56381;SDS011;50261;51.150;4.470;2022-08-19T10:58:13;14.27;;;9.57;;
56381;SDS011;50261;51.150;4.470;2022-08-19T11:00:39;15.85;;;9.82;;
56381;SDS011;50261;51.150;4.470;2022-08-19T11:03:05;17.30;;;10.02;;
56381;SDS011;50261;51.150;4.470;2022-08-19T11:05:31;18.73;;;11.15;;
56381;SDS011;50261;51.150;4.470;2022-08-19T11:07:57;16.85;;;11.38;;
56381;SDS011;50261;51.150;4.470;2022-08-19T11:10:22;16.30;;;10.20;;
56381;SDS011;50261;51.150;4.470;2022-08-19T11:12:48;19.88;;;11.20;;
56381;SDS011;50261;51.150;4.470;2022-08-19T11:15:18;16.85;;;10.25;;
56381;SDS011;50261;51.150;4.470;2022-08-19T11:17:43;16.05;;;10.77;;
56381;SDS011;50261;51.150;4.470;2022-08-19T11:20:12;16.35;;;10.68;;
56381;SDS011;50261;51.150;4.470;2022-08-19T11:22:38;17.58;;;12.02;;
56381;SDS011;50261;51.150;4.470;2022-08-19T11:25:05;16.13;;;10.57;;
56381;SDS011;50261;51.150;4.470;2022-08-19T11:27:30;15.52;;;10.60;;
56381;SDS011;50261;51.150;4.470;2022-08-19T11:29:56;14.85;;;10.02;;
56381;SDS011;50261;51.150;4.470;2022-08-19T11:32:21;11.57;;;8.07;;
56381;SDS011;50261;51.150;4.470;2022-08-19T11:34:46;17.33;;;7.80;;
56381;SDS011;50261;51.150;4.470;2022-08-19T11:37:12;12.75;;;6.97;;
56381;SDS011;50261;51.150;4.470;2022-08-19T11:39:37;12.93;;;7.68;;
56381;SDS011;50261;51.150;4.470;2022-08-19T11:42:05;13.43;;;7.00;;
56381;SDS011;50261;51.150;4.470;2022-08-19T11:44:49;21.17;;;8.20;;
56381;SDS011;50261;51.150;4.470;2022-08-19T11:47:15;14.38;;;7.05;;
56381;SDS011;50261;51.150;4.470;2022-08-19T11:49:40;14.40;;;7.28;;
56381;SDS011;50261;51.150;4.470;2022-08-19T11:52:06;12.45;;;6.53;;
56381;SDS011;50261;51.150;4.470;2022-08-19T11:54:32;10.80;;;7.47;;
56381;SDS011;50261;51.150;4.470;2022-08-19T11:56:58;11.23;;;7.05;;
56381;SDS011;50261;51.150;4.470;2022-08-19T11:59:23;9.73;;;6.57;;
56381;SDS011;50261;51.150;4.470;2022-08-19T12:01:49;10.15;;;6.75;;
56381;SDS011;50261;51.150;4.470;2022-08-19T12:04:14;8.48;;;5.88;;
56381;SDS011;50261;51.150;4.470;2022-08-19T12:06:40;11.45;;;6.25;;
56381;SDS011;50261;51.150;4.470;2022-08-19T12:09:06;10.23;;;6.38;;
56381;SDS011;50261;51.150;4.470;2022-08-19T12:11:34;10.15;;;6.05;;
56381;SDS011;50261;51.150;4.470;2022-08-19T12:13:59;8.93;;;6.15;;
56381;SDS011;50261;51.150;4.470;2022-08-19T12:16:28;8.15;;;5.68;;
56381;SDS011;50261;51.150;4.470;2022-08-19T12:18:54;13.45;;;5.60;;
56381;SDS011;50261;51.150;4.470;2022-08-19T12:21:24;11.05;;;5.55;;
56381;SDS011;50261;51.150;4.470;2022-08-19T12:23:53;8.93;;;4.53;;
56381;SDS011;50261;51.150;4.470;2022-08-19T12:26:19;7.47;;;3.30;;
56381;SDS011;50261;51.150;4.470;2022-08-19T12:28:45;4.78;;;3.45;;
56381;SDS011;50261;51.150;4.470;2022-08-19T12:31:10;6.65;;;4.07;;
56381;SDS011;50261;51.150;4.470;2022-08-19T12:33:39;5.55;;;3.95;;
56381;SDS011;50261;51.150;4.470;2022-08-19T12:36:06;5.88;;;3.13;;
56381;SDS011;50261;51.150;4.470;2022-08-19T12:38:32;5.88;;;2.95;;
56381;SDS011;50261;51.150;4.470;2022-08-19T12:40:59;4.55;;;3.22;;
56381;SDS011;50261;51.150;4.470;2022-08-19T12:43:25;16.23;;;4.35;;
56381;SDS011;50261;51.150;4.470;2022-08-19T12:45:51;6.40;;;3.53;;
56381;SDS011;50261;51.150;4.470;2022-08-19T12:48:17;5.63;;;4.65;;
56381;SDS011;50261;51.150;4.470;2022-08-19T12:50:43;6.70;;;3.58;;
56381;SDS011;50261;51.150;4.470;2022-08-19T12:53:12;5.85;;;3.13;;
56381;SDS011;50261;51.150;4.470;2022-08-19T12:55:38;7.00;;;3.28;;
56381;SDS011;50261;51.150;4.470;2022-08-19T12:58:03;6.75;;;3.80;;
56381;SDS011;50261;51.150;4.470;2022-08-19T13:00:29;5.60;;;3.50;;
56381;SDS011;50261;51.150;4.470;2022-08-19T13:02:58;5.93;;;2.53;;
56381;SDS011;50261;51.150;4.470;2022-08-19T13:05:26;10.32;;;3.58;;
56381;SDS011;50261;51.150;4.470;2022-08-19T13:07:55;4.80;;;2.55;;
56381;SDS011;50261;51.150;4.470;2022-08-19T13:10:22;7.63;;;2.40;;
56381;SDS011;50261;51.150;4.470;2022-08-19T13:12:49;4.47;;;2.22;;
56381;SDS011;50261;51.150;4.470;2022-08-19T13:15:15;4.45;;;2.78;;
56381;SDS011;50261;51.150;4.470;2022-08-19T13:17:43;6.03;;;3.00;;
56381;SDS011;50261;51.150;4.470;2022-08-19T13:20:09;3.80;;;2.55;;
56381;SDS011;50261;51.150;4.470;2022-08-19T13:22:35;6.07;;;2.95;;
56381;SDS011;50261;51.150;4.470;2022-08-19T13:25:01;5.80;;;2.78;;
56381;SDS011;50261;51.150;4.470;2022-08-19T13:27:27;7.63;;;3.47;;
56381;SDS011;50261;51.150;4.470;2022-08-19T13:29:54;8.05;;;3.10;;
56381;SDS011;50261;51.150;4.470;2022-08-19T13:35:21;8.50;;;3.35;;
56381;SDS011;50261;51.150;4.470;2022-08-19T13:37:47;4.13;;;1.77;;
56381;SDS011;50261;51.150;4.470;2022-08-19T13:40:14;2.63;;;1.70;;
56381;SDS011;50261;51.150;4.470;2022-08-19T13:42:44;4.15;;;2.38;;
56381;SDS011;50261;51.150;4.470;2022-08-19T13:45:11;4.45;;;2.10;;
56381;SDS011;50261;51.150;4.470;2022-08-19T13:47:37;2.80;;;1.95;;
56381;SDS011;50261;51.150;4.470;2022-08-19T13:50:10;2.97;;;2.55;;
56381;SDS011;50261;51.150;4.470;2022-08-19T13:52:36;4.18;;;3.63;;
56381;SDS011;50261;51.150;4.470;2022-08-19T13:55:02;2.92;;;2.40;;
56381;SDS011;50261;51.150;4.470;2022-08-19T13:57:28;4.53;;;2.53;;
56381;SDS011;50261;51.150;4.470;2022-08-19T13:59:53;6.30;;;3.10;;
56381;SDS011;50261;51.150;4.470;2022-08-19T14:02:19;7.70;;;3.17;;
56381;SDS011;50261;51.150;4.470;2022-08-19T14:04:45;5.07;;;2.83;;
56381;SDS011;50261;51.150;4.470;2022-08-19T14:07:10;4.72;;;3.38;;
56381;SDS011;50261;51.150;4.470;2022-08-19T14:09:36;4.45;;;3.05;;
56381;SDS011;50261;51.150;4.470;2022-08-19T14:12:01;3.75;;;3.28;;
56381;SDS011;50261;51.150;4.470;2022-08-19T14:14:27;3.70;;;3.38;;
56381;SDS011;50261;51.150;4.470;2022-08-19T14:16:52;4.05;;;3.38;;
56381;SDS011;50261;51.150;4.470;2022-08-19T14:19:18;5.45;;;3.50;;
56381;SDS011;50261;51.150;4.470;2022-08-19T14:21:44;6.57;;;3.53;;
56381;SDS011;50261;51.150;4.470;2022-08-19T14:24:09;5.47;;;3.65;;
56381;SDS011;50261;51.150;4.470;2022-08-19T14:26:35;8.73;;;3.00;;
56381;SDS011;50261;51.150;4.470;2022-08-19T14:29:00;5.10;;;2.80;;
56381;SDS011;50261;51.150;4.470;2022-08-19T14:31:26;4.70;;;2.80;;
56381;SDS011;50261;51.150;4.470;2022-08-19T14:33:51;4.93;;;2.67;;
56381;SDS011;50261;51.150;4.470;2022-08-19T14:36:17;4.07;;;2.50;;